createdAt,value
2018-08-24T00:00:22.066Z,0.00
2018-08-24T00:01:22.071Z,0.00
2018-08-24T00:02:22.079Z,0.00
2018-08-24T00:03:22.071Z,0.00
2018-08-24T00:04:22.076Z,0.00
2018-08-24T00:05:22.074Z,0.00
2018-08-24T00:06:22.078Z,0.00
2018-08-24T00:07:22.149Z,0.00
2018-08-24T00:08:22.084Z,0.00
2018-08-24T00:09:22.090Z,0.00
2018-08-24T00:10:22.093Z,0.00
2018-08-24T00:11:22.098Z,0.00
2018-08-24T00:12:22.100Z,0.00
2018-08-24T00:13:22.097Z,0.00
2018-08-24T00:14:22.100Z,0.00
2018-08-24T00:15:22.117Z,0.00
2018-08-24T00:16:22.112Z,0.00
2018-08-24T00:17:22.112Z,0.00
2018-08-24T00:18:22.113Z,0.00
2018-08-24T00:19:22.116Z,0.00
2018-08-24T00:20:22.124Z,0.00
2018-08-24T00:21:22.126Z,0.00
2018-08-24T00:22:22.124Z,0.00
2018-08-24T00:23:22.131Z,0.00
2018-08-24T00:24:22.146Z,0.00
2018-08-24T00:25:22.136Z,0.00
2018-08-24T00:26:22.139Z,0.00
2018-08-24T00:27:22.143Z,0.00
2018-08-24T00:28:22.146Z,0.00
2018-08-24T00:29:22.149Z,0.00
2018-08-24T00:30:22.149Z,0.00
2018-08-24T00:31:22.156Z,0.00
2018-08-24T00:32:22.176Z,0.00
2018-08-24T00:33:22.158Z,0.00
2018-08-24T00:34:22.161Z,0.00
2018-08-24T00:35:22.160Z,0.00
2018-08-24T00:36:22.166Z,0.00
2018-08-24T00:37:22.176Z,0.00
2018-08-24T00:38:22.173Z,0.00
2018-08-24T00:39:22.178Z,0.00
2018-08-24T00:40:22.180Z,0.00
2018-08-24T00:41:22.187Z,0.00
2018-08-24T00:42:22.187Z,0.00
2018-08-24T00:43:22.185Z,0.00
2018-08-24T00:44:22.186Z,0.00
2018-08-24T00:45:22.191Z,0.00
2018-08-24T00:46:22.195Z,0.00
2018-08-24T00:47:22.199Z,0.00
2018-08-24T00:48:22.203Z,0.00
2018-08-24T00:49:22.203Z,0.00
2018-08-24T00:50:22.213Z,0.00
2018-08-24T00:51:22.210Z,0.00
2018-08-24T00:52:22.210Z,0.00
2018-08-24T00:53:22.209Z,0.00
2018-08-24T00:54:22.215Z,0.00
2018-08-24T00:55:22.218Z,0.00
2018-08-24T00:56:22.222Z,0.00
2018-08-24T00:57:22.226Z,0.00
2018-08-24T00:58:22.227Z,0.00
2018-08-24T00:59:22.229Z,0.00
2018-08-24T01:00:22.255Z,0.00
2018-08-24T01:01:22.239Z,0.00
2018-08-24T01:02:22.244Z,0.00
2018-08-24T01:03:22.238Z,0.00
2018-08-24T01:04:22.242Z,0.00
2018-08-24T01:05:22.246Z,0.00
2018-08-24T01:06:22.245Z,0.00
2018-08-24T01:07:22.275Z,0.00
2018-08-24T01:08:22.258Z,0.00
2018-08-24T01:09:22.257Z,0.00
2018-08-24T01:10:22.259Z,0.00
2018-08-24T01:11:22.260Z,0.00
2018-08-24T01:12:22.266Z,0.00
2018-08-24T01:13:22.262Z,0.00
2018-08-24T01:14:22.270Z,0.00
2018-08-24T01:15:22.269Z,0.00
2018-08-24T01:16:22.273Z,0.00
2018-08-24T01:17:22.277Z,0.00
2018-08-24T01:18:22.282Z,0.00
2018-08-24T01:19:22.277Z,0.00
2018-08-24T01:20:22.283Z,0.00
2018-08-24T01:21:22.285Z,0.00
2018-08-24T01:22:22.287Z,0.00
2018-08-24T01:23:22.290Z,0.00
2018-08-24T01:24:22.289Z,0.00
2018-08-24T01:25:22.292Z,0.00
2018-08-24T01:26:22.298Z,0.00
2018-08-24T01:27:22.301Z,0.00
2018-08-24T01:28:22.303Z,0.00
2018-08-24T01:29:22.310Z,0.00
2018-08-24T01:30:22.302Z,0.00
2018-08-24T01:31:22.318Z,0.00
2018-08-24T01:32:22.312Z,0.00
2018-08-24T01:33:22.316Z,0.00
2018-08-24T01:34:22.316Z,0.00
2018-08-24T01:35:22.318Z,0.00
2018-08-24T01:36:22.322Z,0.00
2018-08-24T01:37:22.322Z,0.00
2018-08-24T01:38:22.319Z,0.00
2018-08-24T01:39:22.330Z,0.00
2018-08-24T01:40:22.328Z,0.00
2018-08-24T01:41:22.337Z,0.00
2018-08-24T01:42:22.334Z,0.00
2018-08-24T01:43:22.337Z,0.00
2018-08-24T01:44:22.339Z,0.00
2018-08-24T01:45:22.345Z,0.00
2018-08-24T01:46:22.340Z,0.00
2018-08-24T01:47:22.346Z,0.00
2018-08-24T01:48:22.350Z,0.00
2018-08-24T01:49:22.348Z,0.00
2018-08-24T01:50:22.349Z,0.00
2018-08-24T01:51:22.348Z,0.00
2018-08-24T01:52:22.353Z,0.00
2018-08-24T01:53:22.357Z,0.00
2018-08-24T01:54:22.362Z,0.00
2018-08-24T01:55:22.358Z,0.00
2018-08-24T01:56:22.358Z,0.00
2018-08-24T01:57:22.359Z,0.00
2018-08-24T01:58:22.364Z,0.00
2018-08-24T01:59:22.368Z,0.00
2018-08-24T02:00:22.368Z,0.00
2018-08-24T02:01:22.374Z,0.00
2018-08-24T02:02:22.371Z,0.00
2018-08-24T02:03:22.375Z,0.00
2018-08-24T02:04:22.374Z,0.00
2018-08-24T02:05:22.380Z,0.00
2018-08-24T02:06:22.386Z,0.00
2018-08-24T02:07:22.381Z,0.00
2018-08-24T02:08:22.392Z,0.00
2018-08-24T02:09:22.391Z,0.00
2018-08-24T02:10:22.392Z,0.00
2018-08-24T02:11:22.393Z,0.00
2018-08-24T02:12:22.433Z,0.00
2018-08-24T02:13:22.394Z,0.00
2018-08-24T02:14:22.404Z,0.00
2018-08-24T02:15:22.403Z,0.00
2018-08-24T02:16:22.412Z,0.00
2018-08-24T02:17:22.407Z,0.00
2018-08-24T02:18:22.403Z,0.00
2018-08-24T02:19:22.408Z,0.00
2018-08-24T02:20:22.412Z,0.00
2018-08-24T02:21:22.410Z,0.00
2018-08-24T02:22:22.408Z,0.00
2018-08-24T02:23:22.412Z,0.00
2018-08-24T02:24:22.416Z,0.00
2018-08-24T02:25:22.418Z,0.00
2018-08-24T02:26:22.425Z,0.00
2018-08-24T02:27:22.423Z,0.00
2018-08-24T02:28:22.424Z,0.00
2018-08-24T02:29:22.420Z,0.00
2018-08-24T02:30:22.433Z,0.00
2018-08-24T02:31:22.530Z,0.00
2018-08-24T02:32:22.429Z,0.00
2018-08-24T02:33:22.435Z,0.00
2018-08-24T02:34:22.432Z,0.00
2018-08-24T02:35:22.433Z,0.00
2018-08-24T02:36:22.443Z,0.00
2018-08-24T02:37:22.452Z,0.00
2018-08-24T02:38:22.442Z,0.00
2018-08-24T02:39:22.443Z,0.00
2018-08-24T02:40:22.449Z,0.00
2018-08-24T02:41:22.450Z,0.00
2018-08-24T02:42:22.451Z,0.00
2018-08-24T02:43:22.454Z,0.00
2018-08-24T02:44:22.460Z,0.00
2018-08-24T02:45:22.452Z,0.00
2018-08-24T02:46:22.455Z,0.00
2018-08-24T02:47:22.465Z,0.00
2018-08-24T02:48:22.459Z,0.00
2018-08-24T02:49:22.459Z,0.00
2018-08-24T02:50:22.458Z,0.00
2018-08-24T02:51:22.464Z,0.00
2018-08-24T02:52:22.467Z,0.00
2018-08-24T02:53:22.472Z,0.00
2018-08-24T02:54:22.465Z,0.00
2018-08-24T02:55:22.468Z,0.00
2018-08-24T02:56:22.481Z,0.00
2018-08-24T02:57:22.481Z,0.00
2018-08-24T02:58:22.474Z,0.00
2018-08-24T02:59:22.478Z,0.00
2018-08-24T03:00:22.478Z,0.00
2018-08-24T03:01:22.474Z,0.00
2018-08-24T03:02:22.483Z,0.00
2018-08-24T03:03:22.487Z,0.00
2018-08-24T03:04:22.488Z,0.00
2018-08-24T03:05:22.660Z,0.00
2018-08-24T03:06:22.489Z,0.00
2018-08-24T03:07:22.492Z,0.00
2018-08-24T03:08:22.532Z,0.00
2018-08-24T03:09:22.492Z,0.00
2018-08-24T03:10:22.498Z,0.00
2018-08-24T03:11:22.497Z,0.00
2018-08-24T03:12:22.494Z,0.00
2018-08-24T03:13:22.497Z,0.00
2018-08-24T03:14:22.501Z,0.00
2018-08-24T03:15:22.509Z,0.00
2018-08-24T03:16:22.514Z,0.00
2018-08-24T03:17:22.510Z,0.00
2018-08-24T03:18:22.524Z,0.00
2018-08-24T03:19:22.509Z,0.00
2018-08-24T03:20:22.512Z,0.00
2018-08-24T03:21:22.533Z,0.00
2018-08-24T03:22:22.516Z,0.00
2018-08-24T03:23:22.521Z,0.00
2018-08-24T03:24:22.514Z,0.00
2018-08-24T03:25:22.518Z,0.00
2018-08-24T03:26:22.529Z,0.00
2018-08-24T03:27:22.525Z,0.00
2018-08-24T03:28:22.535Z,0.00
2018-08-24T03:29:22.528Z,0.00
2018-08-24T03:30:22.528Z,0.00
2018-08-24T03:31:22.530Z,0.00
2018-08-24T03:32:22.541Z,4.00
2018-08-24T03:33:22.534Z,4.00
2018-08-24T03:34:22.540Z,0.00
2018-08-24T03:35:22.539Z,0.00
2018-08-24T03:36:22.535Z,4.00
2018-08-24T03:37:22.568Z,4.00
2018-08-24T03:38:22.543Z,4.00
2018-08-24T03:39:22.543Z,8.00
2018-08-24T03:40:22.549Z,4.00
2018-08-24T03:41:22.550Z,8.00
2018-08-24T03:42:22.559Z,8.00
2018-08-24T03:43:22.555Z,8.00
2018-08-24T03:44:22.556Z,8.00
2018-08-24T03:45:22.556Z,12.00
2018-08-24T03:46:22.556Z,12.00
2018-08-24T03:47:22.565Z,16.00
2018-08-24T03:48:22.565Z,20.00
2018-08-24T03:49:22.564Z,24.00
2018-08-24T03:50:22.571Z,24.00
2018-08-24T03:51:22.565Z,28.00
2018-08-24T03:52:22.565Z,32.00
2018-08-24T03:53:22.663Z,40.00
2018-08-24T03:54:22.574Z,44.00
2018-08-24T03:55:22.574Z,52.00
2018-08-24T03:56:22.577Z,56.00
2018-08-24T03:57:22.576Z,68.00
2018-08-24T03:58:22.585Z,72.00
2018-08-24T03:59:22.583Z,84.00
2018-08-24T04:00:22.583Z,92.00
2018-08-24T04:01:22.588Z,100.00
2018-08-24T04:02:22.593Z,112.00
2018-08-24T04:03:22.589Z,120.00
2018-08-24T04:04:22.589Z,136.00
2018-08-24T04:05:22.590Z,148.00
2018-08-24T04:06:22.597Z,172.00
2018-08-24T04:07:22.598Z,188.00
2018-08-24T04:08:22.598Z,204.00
2018-08-24T04:09:22.602Z,224.00
2018-08-24T04:10:22.599Z,244.00
2018-08-24T04:11:22.599Z,268.00
2018-08-24T04:12:22.604Z,280.00
2018-08-24T04:13:22.606Z,292.00
2018-08-24T04:14:22.608Z,308.00
2018-08-24T04:15:22.611Z,324.00
2018-08-24T04:16:22.613Z,356.00
2018-08-24T04:17:22.615Z,396.00
2018-08-24T04:18:22.615Z,440.00
2018-08-24T04:19:22.654Z,480.00
2018-08-24T04:20:22.634Z,516.00
2018-08-24T04:21:22.621Z,540.00
2018-08-24T04:22:22.621Z,560.00
2018-08-24T04:23:22.622Z,588.00
2018-08-24T04:24:22.630Z,636.00
2018-08-24T04:25:22.633Z,688.00
2018-08-24T04:26:22.630Z,724.00
2018-08-24T04:27:22.640Z,744.00
2018-08-24T04:28:22.630Z,732.00
2018-08-24T04:29:22.641Z,724.00
2018-08-24T04:30:22.640Z,716.00
2018-08-24T04:31:22.650Z,688.00
2018-08-24T04:32:22.643Z,664.00
2018-08-24T04:33:22.640Z,660.00
2018-08-24T04:34:22.638Z,664.00
2018-08-24T04:35:22.647Z,660.00
2018-08-24T04:36:22.650Z,652.00
2018-08-24T04:37:22.650Z,648.00
2018-08-24T04:38:22.647Z,648.00
2018-08-24T04:39:22.651Z,640.00
2018-08-24T04:40:22.791Z,640.00
2018-08-24T04:41:22.659Z,652.00
2018-08-24T04:42:22.667Z,680.00
2018-08-24T04:43:22.661Z,720.00
2018-08-24T04:44:22.664Z,768.00
2018-08-24T04:45:22.665Z,804.00
2018-08-24T04:46:22.666Z,828.00
2018-08-24T04:47:22.668Z,848.00
2018-08-24T04:48:22.677Z,896.00
2018-08-24T04:49:22.679Z,968.00
2018-08-24T04:50:22.673Z,1040.00
2018-08-24T04:51:22.684Z,1084.00
2018-08-24T04:52:22.688Z,1112.00
2018-08-24T04:53:22.681Z,1144.00
2018-08-24T04:54:22.683Z,1184.00
2018-08-24T04:55:22.678Z,1224.00
2018-08-24T04:56:22.682Z,1272.00
2018-08-24T04:57:22.686Z,1332.00
2018-08-24T04:58:22.713Z,1388.00
2018-08-24T04:59:22.691Z,1464.00
2018-08-24T05:00:22.688Z,1552.00
2018-08-24T05:01:22.716Z,1656.00
2018-08-24T05:02:22.697Z,1776.00
2018-08-24T05:03:22.696Z,1924.00
2018-08-24T05:04:22.696Z,2096.00
2018-08-24T05:05:22.698Z,2248.00
2018-08-24T05:06:22.697Z,2372.00
2018-08-24T05:07:22.698Z,2384.00
2018-08-24T05:08:22.702Z,2352.00
2018-08-24T05:09:22.701Z,2356.00
2018-08-24T05:10:22.709Z,2352.00
2018-08-24T05:11:22.712Z,2328.00
2018-08-24T05:12:22.712Z,2300.00
2018-08-24T05:13:22.708Z,2288.00
2018-08-24T05:14:22.709Z,2360.00
2018-08-24T05:15:22.714Z,2576.00
2018-08-24T05:16:22.715Z,2736.00
2018-08-24T05:17:22.719Z,2980.00
2018-08-24T05:18:22.719Z,3176.00
2018-08-24T05:19:22.721Z,3312.00
2018-08-24T05:20:22.722Z,3316.00
2018-08-24T05:21:22.781Z,3324.00
2018-08-24T05:22:22.726Z,3360.00
2018-08-24T05:23:22.760Z,3280.00
2018-08-24T05:24:22.726Z,3164.00
2018-08-24T05:25:22.730Z,2924.00
2018-08-24T05:26:22.734Z,2524.00
2018-08-24T05:27:22.737Z,2204.00
2018-08-24T05:28:22.732Z,2144.00
2018-08-24T05:29:22.733Z,2180.00
2018-08-24T05:30:22.741Z,2240.00
2018-08-24T05:31:22.751Z,2396.00
2018-08-24T05:32:22.743Z,2572.00
2018-08-24T05:33:22.748Z,2788.00
2018-08-24T05:34:22.747Z,2968.00
2018-08-24T05:35:22.752Z,3120.00
2018-08-24T05:36:22.749Z,3208.00
2018-08-24T05:37:22.748Z,3256.00
2018-08-24T05:38:22.752Z,3304.00
2018-08-24T05:39:22.755Z,3312.00
2018-08-24T05:40:22.757Z,3300.00
2018-08-24T05:41:22.787Z,3288.00
2018-08-24T05:42:22.768Z,3464.00
2018-08-24T05:43:22.762Z,3768.00
2018-08-24T05:44:22.815Z,4168.00
2018-08-24T05:45:22.767Z,5236.00
2018-08-24T05:46:22.764Z,5692.00
2018-08-24T05:47:22.769Z,5308.00
2018-08-24T05:48:22.777Z,5412.00
2018-08-24T05:49:22.779Z,6168.00
2018-08-24T05:50:22.776Z,6388.00
2018-08-24T05:51:22.779Z,6760.00
2018-08-24T05:52:22.791Z,6516.00
2018-08-24T05:53:22.784Z,5868.00
2018-08-24T05:54:22.785Z,5000.00
2018-08-24T05:55:22.798Z,5196.00
2018-08-24T05:56:22.827Z,5532.00
2018-08-24T05:57:22.829Z,6140.00
2018-08-24T05:58:22.792Z,7200.00
2018-08-24T05:59:22.797Z,7244.00
2018-08-24T06:00:22.790Z,6856.00
2018-08-24T06:01:22.807Z,7284.00
2018-08-24T06:02:22.798Z,7648.00
2018-08-24T06:03:22.798Z,7760.00
2018-08-24T06:04:22.800Z,7836.00
2018-08-24T06:05:22.810Z,6648.00
2018-08-24T06:06:22.805Z,5904.00
2018-08-24T06:07:22.810Z,5680.00
2018-08-24T06:08:22.812Z,5956.00
2018-08-24T06:09:22.818Z,6292.00
2018-08-24T06:10:22.817Z,6692.00
2018-08-24T06:11:22.821Z,6620.00
2018-08-24T06:12:22.822Z,6868.00
2018-08-24T06:13:22.830Z,7916.00
2018-08-24T06:14:22.830Z,11016.00
2018-08-24T06:15:22.828Z,10832.00
2018-08-24T06:16:22.833Z,11468.00
2018-08-24T06:17:22.835Z,12356.00
2018-08-24T06:18:22.844Z,12200.00
2018-08-24T06:19:22.838Z,11384.00
2018-08-24T06:20:22.844Z,9208.00
2018-08-24T06:21:22.844Z,8488.00
2018-08-24T06:22:22.875Z,8700.00
2018-08-24T06:23:22.853Z,9764.00
2018-08-24T06:24:22.907Z,10640.00
2018-08-24T06:25:22.856Z,10660.00
2018-08-24T06:26:22.859Z,11212.00
2018-08-24T06:27:22.874Z,7784.00
2018-08-24T06:28:22.865Z,7512.00
2018-08-24T06:29:22.867Z,7404.00
2018-08-24T06:30:22.873Z,7608.00
2018-08-24T06:31:22.878Z,8588.00
2018-08-24T06:32:22.884Z,9580.00
2018-08-24T06:33:22.884Z,11428.00
2018-08-24T06:34:22.887Z,16032.00
2018-08-24T06:35:22.893Z,15424.00
2018-08-24T06:36:22.901Z,15520.00
2018-08-24T06:37:22.898Z,15072.00
2018-08-24T06:38:22.918Z,10980.00
2018-08-24T06:39:22.904Z,11644.00
2018-08-24T06:40:22.909Z,15232.00
2018-08-24T06:41:22.915Z,12200.00
2018-08-24T06:42:22.914Z,15648.00
2018-08-24T06:43:22.923Z,19360.00
2018-08-24T06:44:22.925Z,16128.00
2018-08-24T06:45:22.928Z,13820.00
2018-08-24T06:46:22.932Z,10052.00
2018-08-24T06:47:23.109Z,8872.00
2018-08-24T06:48:22.940Z,7996.00
2018-08-24T06:49:22.945Z,12168.00
2018-08-24T06:50:22.949Z,7820.00
2018-08-24T06:51:22.951Z,9992.00
2018-08-24T06:52:22.958Z,10272.00
2018-08-24T06:53:23.130Z,10804.00
2018-08-24T06:54:22.968Z,13936.00
2018-08-24T06:55:22.968Z,13128.00
2018-08-24T06:56:22.972Z,13180.00
2018-08-24T06:57:22.980Z,16704.00
2018-08-24T06:58:22.995Z,16416.00
2018-08-24T06:59:22.984Z,15680.00
2018-08-24T07:00:22.987Z,14752.00
2018-08-24T07:01:22.991Z,22752.00
2018-08-24T07:02:22.996Z,20832.00
2018-08-24T07:03:23.000Z,20928.00
2018-08-24T07:04:23.005Z,22688.00
2018-08-24T07:05:23.008Z,19936.00
2018-08-24T07:06:23.013Z,9552.00
2018-08-24T07:07:23.015Z,9456.00
2018-08-24T07:08:23.021Z,9976.00
2018-08-24T07:09:23.024Z,10104.00
2018-08-24T07:10:23.029Z,10256.00
2018-08-24T07:11:23.032Z,7400.00
2018-08-24T07:12:23.042Z,8128.00
2018-08-24T07:13:23.042Z,8456.00
2018-08-24T07:14:23.050Z,17792.00
2018-08-24T07:15:23.055Z,15904.00
2018-08-24T07:16:23.055Z,18560.00
2018-08-24T07:17:23.055Z,17728.00
2018-08-24T07:18:23.060Z,12392.00
2018-08-24T07:19:23.063Z,11920.00
2018-08-24T07:20:23.069Z,21888.00
2018-08-24T07:21:23.072Z,15744.00
2018-08-24T07:22:23.076Z,16768.00
2018-08-24T07:23:23.079Z,14816.00
2018-08-24T07:24:23.085Z,17184.00
2018-08-24T07:25:23.086Z,15712.00
2018-08-24T07:26:23.091Z,22112.00
2018-08-24T07:27:23.097Z,24896.00
2018-08-24T07:28:23.100Z,12024.00
2018-08-24T07:29:23.099Z,21152.00
2018-08-24T07:30:23.110Z,16032.00
2018-08-24T07:31:23.118Z,16608.00
2018-08-24T07:32:23.118Z,20448.00
2018-08-24T07:33:23.121Z,15456.00
2018-08-24T07:34:23.131Z,13372.00
2018-08-24T07:35:23.131Z,9840.00
2018-08-24T07:36:23.134Z,8924.00
2018-08-24T07:37:23.139Z,10864.00
2018-08-24T07:38:23.142Z,11744.00
2018-08-24T07:39:23.148Z,11040.00
2018-08-24T07:40:23.154Z,10652.00
2018-08-24T07:41:23.175Z,16928.00
2018-08-24T07:42:23.160Z,15744.00
2018-08-24T07:43:23.165Z,20544.00
2018-08-24T07:44:23.171Z,17728.00
2018-08-24T07:45:23.176Z,11496.00
2018-08-24T07:46:23.178Z,17632.00
2018-08-24T07:47:23.184Z,17696.00
2018-08-24T07:48:23.188Z,17824.00
2018-08-24T07:49:23.189Z,17632.00
2018-08-24T07:50:23.191Z,14100.00
2018-08-24T07:51:23.198Z,11532.00
2018-08-24T07:52:23.203Z,14208.00
2018-08-24T07:53:23.208Z,14036.00
2018-08-24T07:54:23.265Z,13024.00
2018-08-24T07:55:23.218Z,12484.00
2018-08-24T07:56:23.221Z,12104.00
2018-08-24T07:57:23.227Z,11756.00
2018-08-24T07:58:23.231Z,11760.00
2018-08-24T07:59:23.236Z,10880.00
2018-08-24T08:00:23.241Z,9824.00
2018-08-24T08:01:23.287Z,10948.00
2018-08-24T08:02:23.247Z,10612.00
2018-08-24T08:03:23.255Z,11312.00
2018-08-24T08:04:23.259Z,13976.00
2018-08-24T08:05:23.304Z,12968.00
2018-08-24T08:06:23.268Z,12196.00
2018-08-24T08:07:23.271Z,10900.00
2018-08-24T08:08:23.275Z,7928.00
2018-08-24T08:09:23.282Z,7460.00
2018-08-24T08:10:23.286Z,7384.00
2018-08-24T08:11:23.291Z,7056.00
2018-08-24T08:12:23.303Z,5964.00
2018-08-24T08:13:23.299Z,5332.00
2018-08-24T08:14:23.368Z,4872.00
2018-08-24T08:15:23.322Z,4688.00
2018-08-24T08:16:23.310Z,4856.00
2018-08-24T08:17:23.316Z,4156.00
2018-08-24T08:18:23.392Z,4088.00
2018-08-24T08:19:23.319Z,4012.00
2018-08-24T08:20:23.330Z,4128.00
2018-08-24T08:21:23.330Z,4468.00
2018-08-24T08:22:23.343Z,4696.00
2018-08-24T08:23:23.346Z,4896.00
2018-08-24T08:24:23.343Z,5540.00
2018-08-24T08:25:23.348Z,6660.00
2018-08-24T08:26:23.349Z,6100.00
2018-08-24T08:27:23.354Z,7544.00
2018-08-24T08:28:23.354Z,8380.00
2018-08-24T08:29:23.359Z,7284.00
2018-08-24T08:30:23.361Z,7100.00
2018-08-24T08:31:23.368Z,9084.00
2018-08-24T08:32:23.650Z,9544.00
2018-08-24T08:33:23.375Z,9560.00
2018-08-24T08:34:23.375Z,8976.00
2018-08-24T08:35:23.483Z,7080.00
2018-08-24T08:36:23.385Z,5868.00
2018-08-24T08:37:23.523Z,6968.00
2018-08-24T08:38:23.391Z,9512.00
2018-08-24T08:39:23.393Z,11652.00
2018-08-24T08:40:23.397Z,13604.00
2018-08-24T08:41:23.403Z,14948.00
2018-08-24T08:42:23.405Z,14820.00
2018-08-24T08:43:23.407Z,13648.00
2018-08-24T08:44:23.412Z,12428.00
2018-08-24T08:45:23.430Z,12272.00
2018-08-24T08:46:23.447Z,12296.00
2018-08-24T08:47:23.419Z,12392.00
2018-08-24T08:48:23.427Z,12564.00
2018-08-24T08:49:23.428Z,11428.00
2018-08-24T08:50:23.487Z,10756.00
2018-08-24T08:51:23.439Z,10212.00
2018-08-24T08:52:23.443Z,10064.00
2018-08-24T08:53:23.464Z,9936.00
2018-08-24T08:54:23.554Z,9884.00
2018-08-24T08:55:23.453Z,9676.00
2018-08-24T08:56:23.456Z,10508.00
2018-08-24T08:57:23.459Z,12384.00
2018-08-24T08:58:23.469Z,10044.00
2018-08-24T08:59:23.467Z,8892.00
2018-08-24T09:00:23.470Z,9692.00
2018-08-24T09:01:23.475Z,10076.00
2018-08-24T09:02:23.481Z,9280.00
2018-08-24T09:03:23.482Z,10528.00
2018-08-24T09:04:23.485Z,11776.00
2018-08-24T09:05:23.491Z,11668.00
2018-08-24T09:06:23.536Z,11616.00
2018-08-24T09:07:23.496Z,12176.00
2018-08-24T09:08:23.502Z,12736.00
2018-08-24T09:09:23.501Z,13324.00
2018-08-24T09:10:23.507Z,12228.00
2018-08-24T09:11:23.512Z,11752.00
2018-08-24T09:12:23.518Z,10364.00
2018-08-24T09:13:23.519Z,11276.00
2018-08-24T09:14:23.557Z,9256.00
2018-08-24T09:15:23.526Z,8912.00
2018-08-24T09:16:23.532Z,8580.00
2018-08-24T09:17:23.537Z,7204.00
2018-08-24T09:18:23.579Z,7144.00
2018-08-24T09:19:23.542Z,8668.00
2018-08-24T09:20:23.547Z,10920.00
2018-08-24T09:21:23.548Z,9956.00
2018-08-24T09:22:23.553Z,8248.00
2018-08-24T09:23:23.559Z,8580.00
2018-08-24T09:24:23.566Z,8228.00
2018-08-24T09:25:23.704Z,8476.00
2018-08-24T09:26:23.569Z,10816.00
2018-08-24T09:27:23.618Z,11364.00
2018-08-24T09:28:23.577Z,11552.00
2018-08-24T09:29:23.582Z,11912.00
2018-08-24T09:30:23.588Z,11668.00
2018-08-24T09:31:23.592Z,12340.00
2018-08-24T09:32:23.756Z,12256.00
2018-08-24T09:33:23.597Z,13556.00
2018-08-24T09:34:23.601Z,12844.00
2018-08-24T09:35:23.622Z,12316.00
2018-08-24T09:36:23.708Z,11644.00
2018-08-24T09:37:23.618Z,11488.00
2018-08-24T09:38:23.618Z,11476.00
2018-08-24T09:39:23.621Z,10892.00
2018-08-24T09:40:23.624Z,10032.00
2018-08-24T09:41:23.632Z,9224.00
2018-08-24T09:42:23.633Z,9620.00
2018-08-24T09:43:23.645Z,9812.00
2018-08-24T09:44:23.642Z,9908.00
2018-08-24T09:45:23.645Z,8152.00
2018-08-24T09:46:23.651Z,7068.00
2018-08-24T09:47:23.656Z,7564.00
2018-08-24T09:48:23.669Z,7024.00
2018-08-24T09:49:23.716Z,4868.00
2018-08-24T09:50:23.668Z,4340.00
2018-08-24T09:51:23.676Z,4060.00
2018-08-24T09:52:23.675Z,4516.00
2018-08-24T09:53:23.679Z,5128.00
2018-08-24T09:54:23.684Z,5768.00
2018-08-24T09:55:23.691Z,7544.00
2018-08-24T09:56:23.695Z,8832.00
2018-08-24T09:57:23.695Z,8876.00
2018-08-24T09:58:23.699Z,9708.00
2018-08-24T09:59:23.708Z,9496.00
2018-08-24T10:00:23.708Z,7984.00
2018-08-24T10:01:23.710Z,6704.00
2018-08-24T10:02:23.716Z,6676.00
2018-08-24T10:03:23.720Z,7360.00
2018-08-24T10:04:23.724Z,7856.00
2018-08-24T10:05:23.727Z,7776.00
2018-08-24T10:06:23.828Z,9360.00
2018-08-24T10:07:23.735Z,9884.00
2018-08-24T10:08:23.737Z,9852.00
2018-08-24T10:09:23.744Z,10164.00
2018-08-24T10:10:23.747Z,9356.00
2018-08-24T10:11:23.753Z,10416.00
2018-08-24T10:12:23.756Z,9932.00
2018-08-24T10:13:23.836Z,8800.00
2018-08-24T10:14:23.763Z,6348.00
2018-08-24T10:15:23.767Z,5296.00
2018-08-24T10:16:23.872Z,5508.00
2018-08-24T10:17:23.774Z,6548.00
2018-08-24T10:18:23.782Z,8316.00
2018-08-24T10:19:23.780Z,7812.00
2018-08-24T10:20:23.785Z,7136.00
2018-08-24T10:21:23.789Z,6936.00
2018-08-24T10:22:23.794Z,6592.00
2018-08-24T10:23:23.798Z,6924.00
2018-08-24T10:24:23.804Z,8196.00
2018-08-24T10:25:23.805Z,8600.00
2018-08-24T10:26:23.811Z,7412.00
2018-08-24T10:27:23.816Z,7536.00
2018-08-24T10:28:23.817Z,7640.00
2018-08-24T10:29:23.968Z,8132.00
2018-08-24T10:30:23.828Z,7244.00
2018-08-24T10:31:23.828Z,6076.00
2018-08-24T10:32:23.826Z,6532.00
2018-08-24T10:33:23.838Z,7196.00
2018-08-24T10:34:23.852Z,5980.00
2018-08-24T10:35:23.844Z,6544.00
2018-08-24T10:36:23.981Z,8396.00
2018-08-24T10:37:23.851Z,9136.00
2018-08-24T10:38:23.856Z,8624.00
2018-08-24T10:39:23.881Z,8128.00
2018-08-24T10:40:23.863Z,6876.00
2018-08-24T10:41:23.912Z,6336.00
2018-08-24T10:42:23.873Z,7128.00
2018-08-24T10:43:23.869Z,9956.00
2018-08-24T10:44:23.881Z,10216.00
2018-08-24T10:45:23.879Z,11360.00
2018-08-24T10:46:23.885Z,10620.00
2018-08-24T10:47:23.895Z,9948.00
2018-08-24T10:48:23.894Z,11612.00
2018-08-24T10:49:23.956Z,11496.00
2018-08-24T10:50:23.912Z,11248.00
2018-08-24T10:51:23.904Z,11076.00
2018-08-24T10:52:23.906Z,10952.00
2018-08-24T10:53:23.911Z,10484.00
2018-08-24T10:54:23.922Z,8412.00
2018-08-24T10:55:23.937Z,6892.00
2018-08-24T10:56:23.923Z,6112.00
2018-08-24T10:57:23.948Z,6760.00
2018-08-24T10:58:23.931Z,8364.00
2018-08-24T10:59:23.933Z,10340.00
2018-08-24T11:00:23.939Z,11604.00
2018-08-24T11:01:23.949Z,11784.00
2018-08-24T11:02:23.943Z,11012.00
2018-08-24T11:03:23.968Z,10204.00
2018-08-24T11:04:23.957Z,10492.00
2018-08-24T11:05:24.013Z,9776.00
2018-08-24T11:06:23.960Z,9612.00
2018-08-24T11:07:24.062Z,9188.00
2018-08-24T11:08:23.968Z,9444.00
2018-08-24T11:09:23.970Z,8644.00
2018-08-24T11:10:23.982Z,8012.00
2018-08-24T11:11:23.975Z,6280.00
2018-08-24T11:12:23.981Z,6144.00
2018-08-24T11:13:23.984Z,6264.00
2018-08-24T11:14:23.990Z,6116.00
2018-08-24T11:15:24.036Z,5112.00
2018-08-24T11:16:38.860Z,4456.00
2018-08-24T11:17:24.000Z,4284.00
2018-08-24T11:18:24.003Z,5112.00
2018-08-24T11:19:24.008Z,5656.00
2018-08-24T11:20:24.011Z,6036.00
2018-08-24T11:21:24.012Z,5824.00
2018-08-24T11:22:24.020Z,4208.00
2018-08-24T11:23:24.020Z,4448.00
2018-08-24T11:24:24.028Z,5444.00
2018-08-24T11:25:24.045Z,4876.00
2018-08-24T11:26:24.029Z,4676.00
2018-08-24T11:27:24.034Z,4564.00
2018-08-24T11:28:24.039Z,4868.00
2018-08-24T11:29:24.094Z,4620.00
2018-08-24T11:30:24.040Z,4120.00
2018-08-24T11:31:24.086Z,3372.00
2018-08-24T11:32:24.049Z,2796.00
2018-08-24T11:33:24.061Z,2524.00
2018-08-24T11:34:24.060Z,2444.00
2018-08-24T11:35:24.060Z,2536.00
2018-08-24T11:36:24.115Z,2644.00
2018-08-24T11:37:24.063Z,2928.00
2018-08-24T11:38:24.065Z,3052.00
2018-08-24T11:39:24.076Z,2548.00
2018-08-24T11:40:24.074Z,2232.00
2018-08-24T11:41:24.351Z,1916.00
2018-08-24T11:42:24.080Z,2364.00
2018-08-24T11:43:24.249Z,2188.00
2018-08-24T11:44:24.087Z,2220.00
2018-08-24T11:45:24.107Z,2328.00
2018-08-24T11:46:24.091Z,2744.00
2018-08-24T11:47:24.273Z,3588.00
2018-08-24T11:48:24.098Z,4436.00
2018-08-24T11:49:24.099Z,6000.00
2018-08-24T11:50:24.103Z,7272.00
2018-08-24T11:51:24.104Z,8336.00
2018-08-24T11:52:24.108Z,9256.00
2018-08-24T11:53:24.107Z,7876.00
2018-08-24T11:54:24.124Z,6520.00
2018-08-24T11:55:24.117Z,5756.00
2018-08-24T11:56:24.224Z,4588.00
2018-08-24T11:57:24.123Z,4592.00
2018-08-24T11:58:24.124Z,5500.00
2018-08-24T11:59:24.128Z,6748.00
2018-08-24T12:00:24.133Z,7840.00
2018-08-24T12:01:24.256Z,8456.00
2018-08-24T12:02:24.166Z,8200.00
2018-08-24T12:03:24.151Z,8456.00
2018-08-24T12:04:24.140Z,7380.00
2018-08-24T12:05:24.251Z,7440.00
2018-08-24T12:06:24.146Z,7568.00
2018-08-24T12:07:24.148Z,7952.00
2018-08-24T12:08:24.312Z,8992.00
2018-08-24T12:09:24.153Z,9292.00
2018-08-24T12:10:24.158Z,9480.00
2018-08-24T12:11:24.160Z,9232.00
2018-08-24T12:12:24.178Z,8824.00
2018-08-24T12:13:24.498Z,9000.00
2018-08-24T12:14:24.392Z,9204.00
2018-08-24T12:15:24.293Z,9780.00
2018-08-24T12:16:24.845Z,8568.00
2018-08-24T12:17:24.473Z,7056.00
2018-08-24T12:18:24.677Z,6348.00
2018-08-24T12:19:24.267Z,6924.00
2018-08-24T12:20:24.193Z,6512.00
2018-08-24T12:21:24.529Z,6480.00
2018-08-24T12:22:24.281Z,6388.00
2018-08-24T12:23:25.165Z,6616.00
2018-08-24T12:24:24.926Z,6768.00